NCAR-RAP Real-Time Weather Data

Output produced by METARs form (17 October 2018  16:56 UTC)
found at http://weather.rap.ucar.edu/surface/
 
RJFF 171630Z AUTO 00000KT 9999 NCD 15/11 Q1014 BECMG TL1700 14005KT
RJFF 171600Z AUTO VRB01KT 9999 NCD 15/12 Q1014 NOSIG RMK A2995
RJFF 171530Z AUTO VRB02KT 9999 NCD 15/12 Q1014 NOSIG RMK A2995
RJFF 171500Z AUTO VRB02KT 9999 NCD 15/12 Q1014 NOSIG RMK A2995
RJFF 171430Z AUTO VRB01KT 9999 NCD 15/12 Q1014 NOSIG RMK A2995
RJFF 171400Z AUTO VRB02KT 9999 NCD 16/12 Q1014 NOSIG RMK A2996
RJFF 171330Z 05003KT 9999 FEW020 16/12 Q1014 NOSIG RMK 1CU020 A2996
RJFF 171300Z VRB02KT 9999 FEW020 BKN/// 17/12 Q1014 BECMG TL1330 14005KT
RJFF 171230Z 09003KT 040V140 9999 FEW020 BKN/// 17/12 Q1014 NOSIG
RJFF 171200Z 11004KT 060V130 9999 FEW025 BKN/// 18/12 Q1014 NOSIG
RJFF 171130Z VRB02KT 9999 FEW025 BKN/// 18/12 Q1014 BECMG TL1200 14005KT
RJFF 171100Z 08003KT 020V140 9999 FEW025 BKN/// 18/12 Q1014 NOSIG
RJFF 171030Z 06003KT 030V120 9999 FEW025 BKN/// 18/12 Q1013 BECMG TL1100 15005KT
RJFF 171000Z 04004KT 350V100 9999 FEW025 BKN/// 19/12 Q1013 BECMG TL1100 15005KT RMK 1CU025 A2994
RJFF 170930Z 03004KT 330V080 9999 FEW025 BKN/// 19/11 Q1013 NOSIG
RJFF 170900Z 01005KT 330V070 9999 FEW025 BKN/// 20/11 Q1013 NOSIG
RJFF 170830Z 02007KT 340V100 9999 FEW025 BKN/// 20/11 Q1013 NOSIG
RJFF 170800Z 35008KT 320V030 9999 FEW025 BKN/// 20/11 Q1013 NOSIG
RJFF 170730Z 33009KT 310V010 9999 FEW025 BKN/// 21/10 Q1012 NOSIG
RJFF 170700Z 34009KT 9999 FEW025 BKN/// 21/10 Q1012 NOSIG RMK 1CU025 A2991
RJFF 170630Z 33010KT 9999 FEW025 BKN/// 21/11 Q1012 NOSIG
RJFF 170600Z 33010KT 9999 FEW030 BKN/// 22/11 Q1012 NOSIG RMK 1CU030 A2990
RJFF 170530Z 33012KT 9999 FEW030 BKN/// 22/12 Q1012 NOSIG RMK 1CU030 A2990
RJFF 170500Z 33011KT 9999 FEW030 BKN/// 22/11 Q1012 NOSIG RMK 1CU030 A2989
RJFF 170430Z 33011KT 9999 FEW030 BKN/// 22/12 Q1012 NOSIG RMK 1CU030 A2990
RJFF 170400Z 34008KT 9999 FEW035 BKN/// 22/12 Q1012 NOSIG RMK 1CU035 A2990
RJFF 170330Z 34010KT 9999 FEW035 BKN/// 21/12 Q1012 NOSIG RMK 1CU035 A2990
RJFF 170300Z 34010KT 300V010 9999 FEW035 BKN/// 22/12 Q1013 NOSIG RMK 2CU035 A2991
RJFF 170230Z 35009KT 320V030 9999 FEW035 BKN/// 21/12 Q1013 NOSIG RMK 1CU035 A2992
RJFF 170200Z 32007KT 290V360 9999 FEW035 BKN/// 21/14 Q1013 NOSIG RMK 1CU035 A2993
RJFF 170130Z 32006KT 290V360 9999 FEW035 BKN/// 20/13 Q1014 NOSIG
RJFF 170100Z 31005KT 270V350 9999 FEW030 BKN080 18/13 Q1014 NOSIG RMK 1CU030 7AC080 A2995
RJFF 170030Z 35006KT 320V040 9999 FEW030 SCT050 BKN080 18/14 Q1014 NOSIG RMK 1CU030 4SC050 7AC080 A2995
RJFF 170000Z VRB01KT 9999 FEW035 BKN050 BKN080 17/13 Q1014 BECMG 34008KT TEMPO 4000 SHRA BR
RJFF 162330Z VRB03KT 9999 FEW035 SCT060 BKN090 17/14 Q1014 BECMG 34008KT TEMPO 4000 SHRA BR
RJFF 162300Z 12004KT 020V150 9999 FEW035 SCT060 BKN080 16/13 Q1013 BECMG 01006KT TEMPO FM0000 4000 SHRA BR
RJFF 162230Z VRB02KT 9999 FEW035 SCT100 BKN/// 16/13 Q1013 BECMG 01006KT
RJFF 162200Z 15005KT 9999 FEW035 SCT080 BKN100 15/13 Q1013 NOSIG RMK 1CU035 3AC080 5AC100 A2993
RJFF 162130Z VRB01KT 9999 FEW035 SCT060 BKN080 16/13 Q1013 NOSIG RMK 1CU035 4SC060 6AC080 A2992
RJFF 162100Z 20002KT 9999 FEW025 BKN060 BKN100 16/13 Q1013 NOSIG RMK 1CU025 5SC060 7AC100 A2993
RJFF 162030Z AUTO 07003KT 010V100 9999 FEW034 BKN049 BKN050 16/13 Q1013 NOSIG RMK A2992
RJFF 162000Z AUTO 32006KT 290V010 9999 -RA FEW020 SCT021 BKN026 //////TCU 16/13 Q1013 BECMG 14003KT
RJFF 161950Z AUTO 32004KT 250V340 8000 -RA SCT021 SCT026 BKN034 //////TCU 16/13 Q1013 RMK A2991 TCU 5KM NW MOV UNKNOWN
RJFF 161945Z AUTO VRB02KT 2700 -RA BR FEW023 SCT030 BKN047 //////TCU 16/13 Q1012 RMK A2991 TCU 5KM NW MOV UNKNOWN
RJFF 161930Z AUTO VRB02KT 9999 FEW030 BKN050 OVC080 16/13 Q1012 NOSIG RMK A2990
RJFF 161900Z AUTO 28004KT 9999 -RA SCT050 OVC060 //////TCU 15/13 Q1012 NOSIG
RJFF 161841Z AUTO 31005KT 5000 -RA BR FEW049 SCT060 OVC070 //////TCU 15/12 Q1012 RMK A2991 TCU 10KM SW MOV UNKNOWN
RJFF 161836Z AUTO 32007KT 4400 -RA BR FEW050 SCT060 OVC070 //////TCU 15/12 Q1012 RMK A2991 TCU 10KM SW MOV UNKNOWN
RJFF 161830Z AUTO 33007KT 8000 -RA FEW045 SCT050 BKN060 //////TCU 16/13 Q1012 BECMG 14003KT
RJFF 161828Z AUTO 33007KT 5000 -RA BR FEW045 SCT050 BKN060 //////TCU 16/13 Q1012 RMK A2991 TCU 25KM SW MOV UNKNOWN
RJFF 161823Z AUTO 33008KT 4700 -RA BR FEW022 BKN050 BKN060 //////TCU 16/13 Q1012 RMK A2991 TCU 25KM SW MOV UNKNOWN
RJFF 161809Z AUTO 31006KT 9000 -RA FEW022 SCT046 BKN050 //////TCU 17/13 Q1012 RMK A2990 TCU 5KM SW-NW MOV UNKNOWN
RJFF 161804Z AUTO 31008KT 4500 -RA BR FEW022 SCT046 BKN050 //////TCU 17/13 Q1012 RMK A2990 TCU 5KM SW-NW MOV UNKNOWN
RJFF 161800Z AUTO 31009KT 9999 -RA FEW022 SCT044 BKN046 //////TCU 17/12 Q1012 BECMG 14003KT RMK A2990 TCU 5KM NW MOV UNKNOWN
RJFF 161730Z AUTO 00000KT 9999 -RA FEW050 SCT060 OVC070 //////TCU 18/12 Q1012 NOSIG RMK A2989 TCU 10KM NW MOV UNKNOWN
RJFF 161700Z AUTO VRB01KT 9999 -RA FEW050 SCT060 OVC070 //////TCU 18/11 Q1012 NOSIG RMK A2989 TCU 10KM W MOV UNKNOWN
RJFF 161630Z AUTO 14003KT 9999 SCT070 OVC080 //////TCU 17/12 Q1012 NOSIG
RJFF 161600Z AUTO 15002KT 9999 NSC 18/11 Q1012 NOSIG RMK A2989
RJFF 161530Z AUTO 14001KT 9999 NSC 18/11 Q1012 NOSIG RMK A2989
RJFF 161500Z AUTO 07001KT 9999 NSC 18/11 Q1012 NOSIG RMK A2989
RJFF 161430Z AUTO VRB01KT 9999 NSC 18/11 Q1012 NOSIG RMK A2990
RJFF 161400Z AUTO 00000KT 9999 NSC 17/12 Q1012 NOSIG RMK A2990
RJFF 161330Z 00000KT 9999 FEW035 BKN080 BKN100 19/10 Q1012 NOSIG RMK 1CU035 5AC080 7AC100 A2991
RJFF 161300Z VRB01KT 9999 FEW035 BKN080 BKN100 19/11 Q1012 NOSIG RMK 1CU035 5AC080 7AC100 A2991
RJFF 161230Z VRB02KT 9999 FEW035 BKN080 BKN100 19/10 Q1012 NOSIG RMK 1CU035 5AC080 7AC100 A2991
RJFF 161200Z 03004KT 350V130 9999 FEW035 BKN100 BKN120 19/11 Q1012 NOSIG RMK 1CU035 5AC100 7AC120 A2990
RJFF 161130Z 01004KT 310V080 9999 FEW035 BKN100 BKN120 19/11 Q1012 NOSIG RMK 1CU035 5AC100 7AC120 A2990
RJFF 161100Z 01005KT 320V080 9999 -RA FEW035 BKN080 BKN100 20/11 Q1012 NOSIG RMK 1CU035 5AC080 7AC100 A2990
RJFF 161030Z 36006KT 320V040 9999 FEW035 BKN080 BKN100 20/12 Q1012 NOSIG RMK 1CU035 5AC080 7AC100 A2990
RJFF 161000Z 03007KT 360V090 9999 -RA FEW035 BKN080 BKN100 19/12 Q1011 NOSIG RMK 1CU035 5AC080 7AC100 A2988
RJFF 160930Z 03005KT 340V090 9999 FEW035 SCT080 BKN100 20/12 Q1012 NOSIG RMK 1CU035 4AC080 7AC100 A2990
RJFF 160900Z 01008KT 9999 FEW035 BKN090 BKN110 20/11 Q1012 NOSIG RMK 1CU035 5AC090 7AC110 A2990
RJFF 160830Z 36009KT 9999 FEW035 BKN090 BKN120 21/12 Q1012 NOSIG RMK 1CU035 5AC090 6AC120 A2990
RJFF 160800Z 36008KT 330V050 9999 FEW035 BKN100 BKN120 22/12 Q1012 NOSIG RMK 1CU035 5AC100 6AC120 A2989
RJFF 160730Z 01008KT 340V050 9999 FEW030 BKN100 BKN110 21/12 Q1012 NOSIG RMK 1CU030 5AC100 6AC110 A2988
RJFF 160700Z 02009KT 9999 FEW030 SCT100 BKN110 21/12 Q1011 NOSIG RMK 1CU030 4AC100 5AC110 A2988
RJFF 160630Z 01011KT 9999 -RA FEW030 SCT100 BKN120 21/12 Q1011 NOSIG RMK 1CU030 3AC100 5AC120 A2987
RJFF 160600Z 34012KT 9999 FEW030 SCT110 BKN120 21/12 Q1011 NOSIG RMK 1CU030 3AC110 5AC120 A2987
RJFF 160530Z 33011KT 9999 FEW030 BKN120 BKN130 21/11 Q1011 NOSIG RMK 1CU030 5AC120 6AC130 A2987
RJFF 160500Z 33012KT 9999 FEW030 SCT120 BKN130 22/12 Q1011 NOSIG RMK 1CU030 4AC120 6AC130 A2987
RJFF 160430Z 34011KT 9999 FEW030 SCT120 BKN130 22/12 Q1011 NOSIG RMK 1CU030 3AC120 6AC130 A2987
RJFF 160400Z 32010KT 9999 FEW030 BKN130 BKN140 23/12 Q1012 NOSIG RMK 1CU030 5AC130 6AC140 A2989
RJFF 160330Z VRB02KT 9999 FEW030 BKN130 BKN/// 22/08 Q1012 BECMG TL0430 35010KT RMK 1CU030 6AC130 A2990
RJFF 160300Z 07004KT 350V150 9999 FEW030 BKN/// 22/09 Q1013 BECMG 35010KT RMK 1CU030 A2992
RJFF 160230Z 34004KT 270V040 9999 FEW030 BKN140 BKN/// 21/10 Q1013 NOSIG RMK 1CU030 6AC140 A2992
RJFF 160200Z 01005KT 330V070 9999 FEW030 BKN/// 22/11 Q1013 NOSIG RMK 1CU030 A2993
RJFF 160130Z 34008KT 310V020 9999 FEW030 BKN/// 22/12 Q1014 NOSIG
RJFF 160100Z 35005KT 300V050 9999 FEW030 BKN/// 20/11 Q1014 NOSIG RMK 1CU030 A2995
RJFF 160030Z VRB02KT 9999 FEW030 BKN/// 20/12 Q1015 BECMG 35008KT RMK 1CU030 A2997
RJFF 160000Z 00000KT 9999 FEW030 BKN/// 18/12 Q1015 BECMG FM0100 35008KT
RJFF 152330Z VRB02KT 9999 FEW030 BKN/// 17/12 Q1015 NOSIG
RJFF 152300Z 14003KT 090V170 CAVOK 15/12 Q1015 BECMG FM0000 02007KT RMK A2999
RJFF 152230Z 00000KT CAVOK 15/11 Q1015 BECMG FM0000 02007KT
RJFF 152200Z 15003KT 120V190 CAVOK 14/12 Q1015 NOSIG RMK A2998
RJFF 152130Z 11003KT CAVOK 15/11 Q1015 NOSIG RMK A2998
RJFF 152100Z 07002KT 9999 FEW030 BKN/// 15/12 Q1015 NOSIG RMK 1CU030 A2999
RJFF 152030Z AUTO 13001KT 9999 NSC 15/12 Q1015 NOSIG RMK A2999
RJFF 152000Z AUTO 12002KT 9999 NCD 15/12 Q1015 NOSIG RMK A2999
RJFF 151930Z AUTO 13003KT 9999 NSC 15/12 Q1015 NOSIG RMK A2998
RJFF 151900Z AUTO 13002KT 9999 NSC 14/11 Q1015 NOSIG RMK A3000
RJFF 151830Z AUTO VRB01KT 9999 NSC 15/11 Q1016 NOSIG RMK A3000
RJFF 151800Z AUTO 08002KT 9999 NSC 15/11 Q1016 NOSIG RMK A3000
RJFF 151730Z AUTO 13002KT 9999 NCD 16/12 Q1016 NOSIG RMK A3001
RJFF 151700Z AUTO 14002KT 9999 NSC 15/11 Q1016 NOSIG RMK A3002
RJFF 151630Z AUTO VRB02KT 9999 NSC 15/11 Q1016 NOSIG RMK A3003
RJFF 151600Z AUTO VRB01KT 9999 NCD 15/11 Q1017 NOSIG RMK A3003
RJFF 151530Z AUTO VRB02KT 9999 NCD 16/11 Q1017 NOSIG RMK A3003
RJFF 151500Z AUTO VRB01KT 9999 NCD 16/12 Q1017 NOSIG RMK A3003
RJFF 151430Z AUTO VRB01KT 9999 NCD 16/12 Q1017 NOSIG RMK A3004
RJFF 151400Z AUTO 00000KT 9999 NCD 16/12 Q1017 NOSIG RMK A3004
RJFF 151330Z VRB02KT 9999 FEW030 BKN/// 16/11 Q1017 NOSIG
RJFF 151300Z VRB02KT 9999 FEW030 BKN/// 17/11 Q1017 NOSIG RMK 1CU030 A3004
RJFF 151230Z 07005KT 040V120 9999 FEW030 BKN/// 17/11 Q1017 NOSIG RMK 1CU030 A3004
RJFF 151200Z 01003KT 270V080 9999 FEW030 BKN/// 18/11 Q1017 NOSIG
RJFF 151130Z VRB01KT 9999 FEW030 BKN/// 18/11 Q1017 NOSIG
RJFF 151100Z 05003KT 360V130 9999 FEW030 SCT/// 18/11 Q1017 NOSIG
RJFF 151030Z 07004KT 030V110 9999 FEW030 SCT/// 19/10 Q1017 NOSIG
RJFF 151000Z 03005KT 310V100 9999 FEW030 19/10 Q1017 BECMG FM1100 08005KT
RJFF 150930Z 34005KT 9999 FEW030 20/10 Q1017 BECMG FM1100 08005KT
RJFF 150900Z 34006KT 310V020 9999 FEW030 21/10 Q1017 NOSIG RMK 1CU030 A3003
RJFF 150830Z 34007KT 9999 FEW035 20/10 Q1016 NOSIG RMK 1CU035 A3002
RJFF 150800Z 33010KT 9999 FEW035 BKN/// 21/09 Q1016 NOSIG RMK 1CU035 A3002
RJFF 150730Z 33010KT 9999 FEW035 BKN/// 22/10 Q1016 NOSIG RMK 1CU035 A3002
RJFF 150700Z 33010KT 9999 FEW035 BKN/// 22/10 Q1016 NOSIG RMK 1CU035 A3002
RJFF 150630Z 34011KT 9999 FEW030 BKN/// 22/10 Q1016 NOSIG RMK 1CU030 A3002
RJFF 150600Z 32010KT 290V350 9999 FEW030 BKN/// 23/10 Q1016 NOSIG RMK 1CU030 A3002
RJFF 150530Z 30011KT 9999 FEW030 BKN/// 23/10 Q1016 NOSIG RMK 1CU030 A3002
RJFF 150500Z 29009KT 9999 FEW030 BKN/// 23/09 Q1016 NOSIG RMK 1CU030 A3002